sensor_id;sensor_type;location;lat;lon;timestamp;P1;durP1;ratioP1;P2;durP2;ratioP2
24637;SDS011;12773;50.162;8.548;2024-02-28T00:00:15;33.75;;;14.75;;
24637;SDS011;12773;50.162;8.548;2024-02-28T00:03:03;31.85;;;14.38;;
24637;SDS011;12773;50.162;8.548;2024-02-28T00:05:51;31.00;;;14.68;;
24637;SDS011;12773;50.162;8.548;2024-02-28T00:08:38;30.02;;;14.80;;
24637;SDS011;12773;50.162;8.548;2024-02-28T00:11:26;28.42;;;14.05;;
24637;SDS011;12773;50.162;8.548;2024-02-28T00:14:13;33.40;;;14.98;;
24637;SDS011;12773;50.162;8.548;2024-02-28T00:17:00;26.75;;;13.68;;
24637;SDS011;12773;50.162;8.548;2024-02-28T00:19:48;31.60;;;14.00;;
24637;SDS011;12773;50.162;8.548;2024-02-28T00:22:36;29.50;;;14.45;;
24637;SDS011;12773;50.162;8.548;2024-02-28T00:25:23;29.10;;;14.10;;
24637;SDS011;12773;50.162;8.548;2024-02-28T00:28:11;30.50;;;14.30;;
24637;SDS011;12773;50.162;8.548;2024-02-28T00:30:58;27.02;;;14.00;;
24637;SDS011;12773;50.162;8.548;2024-02-28T00:33:46;33.83;;;15.75;;
24637;SDS011;12773;50.162;8.548;2024-02-28T00:36:34;27.52;;;13.45;;
24637;SDS011;12773;50.162;8.548;2024-02-28T00:39:23;33.35;;;14.87;;
24637;SDS011;12773;50.162;8.548;2024-02-28T00:42:10;27.65;;;14.33;;
24637;SDS011;12773;50.162;8.548;2024-02-28T00:44:58;31.23;;;14.80;;
24637;SDS011;12773;50.162;8.548;2024-02-28T00:47:45;29.50;;;14.63;;
24637;SDS011;12773;50.162;8.548;2024-02-28T00:50:33;28.92;;;13.93;;
24637;SDS011;12773;50.162;8.548;2024-02-28T00:53:20;28.55;;;14.33;;
24637;SDS011;12773;50.162;8.548;2024-02-28T00:56:08;31.87;;;14.40;;
24637;SDS011;12773;50.162;8.548;2024-02-28T00:58:55;29.72;;;14.13;;
24637;SDS011;12773;50.162;8.548;2024-02-28T01:01:43;29.48;;;14.10;;
24637;SDS011;12773;50.162;8.548;2024-02-28T01:04:30;31.25;;;14.00;;
24637;SDS011;12773;50.162;8.548;2024-02-28T01:07:18;33.13;;;14.78;;
24637;SDS011;12773;50.162;8.548;2024-02-28T01:10:06;31.48;;;14.55;;
24637;SDS011;12773;50.162;8.548;2024-02-28T01:12:54;31.52;;;14.80;;
24637;SDS011;12773;50.162;8.548;2024-02-28T01:15:41;33.13;;;15.43;;
24637;SDS011;12773;50.162;8.548;2024-02-28T01:18:29;29.60;;;13.68;;
24637;SDS011;12773;50.162;8.548;2024-02-28T01:21:18;32.50;;;15.32;;
24637;SDS011;12773;50.162;8.548;2024-02-28T01:24:05;30.43;;;14.58;;
24637;SDS011;12773;50.162;8.548;2024-02-28T01:26:53;32.48;;;14.87;;
24637;SDS011;12773;50.162;8.548;2024-02-28T01:29:41;33.83;;;14.45;;
24637;SDS011;12773;50.162;8.548;2024-02-28T01:32:29;32.48;;;14.80;;
24637;SDS011;12773;50.162;8.548;2024-02-28T01:35:16;37.75;;;15.40;;
24637;SDS011;12773;50.162;8.548;2024-02-28T01:38:04;34.40;;;14.55;;
24637;SDS011;12773;50.162;8.548;2024-02-28T01:40:51;33.42;;;15.50;;
24637;SDS011;12773;50.162;8.548;2024-02-28T01:43:39;30.88;;;14.45;;
24637;SDS011;12773;50.162;8.548;2024-02-28T01:46:27;29.27;;;13.90;;
24637;SDS011;12773;50.162;8.548;2024-02-28T01:49:17;32.15;;;14.35;;
24637;SDS011;12773;50.162;8.548;2024-02-28T01:52:05;33.18;;;15.00;;
24637;SDS011;12773;50.162;8.548;2024-02-28T01:54:53;32.75;;;13.45;;
24637;SDS011;12773;50.162;8.548;2024-02-28T01:57:41;33.15;;;14.20;;
24637;SDS011;12773;50.162;8.548;2024-02-28T02:00:28;33.50;;;13.90;;
24637;SDS011;12773;50.162;8.548;2024-02-28T02:03:16;32.30;;;13.50;;
24637;SDS011;12773;50.162;8.548;2024-02-28T02:06:04;35.30;;;14.43;;
24637;SDS011;12773;50.162;8.548;2024-02-28T02:08:52;33.18;;;13.80;;
24637;SDS011;12773;50.162;8.548;2024-02-28T02:11:40;33.45;;;13.58;;
24637;SDS011;12773;50.162;8.548;2024-02-28T02:14:27;33.25;;;14.40;;
24637;SDS011;12773;50.162;8.548;2024-02-28T02:17:15;29.48;;;13.43;;
24637;SDS011;12773;50.162;8.548;2024-02-28T02:20:02;29.63;;;12.25;;
24637;SDS011;12773;50.162;8.548;2024-02-28T02:22:51;37.85;;;13.98;;
24637;SDS011;12773;50.162;8.548;2024-02-28T02:25:49;35.13;;;14.50;;
24637;SDS011;12773;50.162;8.548;2024-02-28T02:28:36;34.18;;;14.47;;
24637;SDS011;12773;50.162;8.548;2024-02-28T02:31:24;36.53;;;15.55;;
24637;SDS011;12773;50.162;8.548;2024-02-28T02:34:12;37.20;;;15.23;;
24637;SDS011;12773;50.162;8.548;2024-02-28T02:36:59;34.03;;;14.18;;
24637;SDS011;12773;50.162;8.548;2024-02-28T02:39:47;38.83;;;14.93;;
24637;SDS011;12773;50.162;8.548;2024-02-28T02:42:34;36.15;;;14.75;;
24637;SDS011;12773;50.162;8.548;2024-02-28T02:45:22;37.33;;;15.45;;
24637;SDS011;12773;50.162;8.548;2024-02-28T02:48:10;35.83;;;14.23;;
24637;SDS011;12773;50.162;8.548;2024-02-28T02:50:57;35.55;;;14.10;;
24637;SDS011;12773;50.162;8.548;2024-02-28T02:53:45;37.23;;;14.87;;
24637;SDS011;12773;50.162;8.548;2024-02-28T02:56:32;33.60;;;13.48;;
24637;SDS011;12773;50.162;8.548;2024-02-28T02:59:19;37.53;;;14.55;;
24637;SDS011;12773;50.162;8.548;2024-02-28T03:02:07;34.63;;;14.38;;
24637;SDS011;12773;50.162;8.548;2024-02-28T03:04:55;33.92;;;13.35;;
24637;SDS011;12773;50.162;8.548;2024-02-28T03:07:43;34.53;;;13.83;;
24637;SDS011;12773;50.162;8.548;2024-02-28T03:10:30;34.58;;;14.65;;
24637;SDS011;12773;50.162;8.548;2024-02-28T03:13:18;41.33;;;15.00;;
24637;SDS011;12773;50.162;8.548;2024-02-28T03:16:05;37.20;;;13.78;;
24637;SDS011;12773;50.162;8.548;2024-02-28T03:18:53;36.80;;;14.10;;
24637;SDS011;12773;50.162;8.548;2024-02-28T03:21:41;37.17;;;15.05;;
24637;SDS011;12773;50.162;8.548;2024-02-28T03:24:29;36.60;;;14.98;;
24637;SDS011;12773;50.162;8.548;2024-02-28T03:27:16;36.28;;;14.43;;
24637;SDS011;12773;50.162;8.548;2024-02-28T03:30:04;35.78;;;14.45;;
24637;SDS011;12773;50.162;8.548;2024-02-28T03:32:52;37.05;;;15.05;;
24637;SDS011;12773;50.162;8.548;2024-02-28T03:35:40;39.60;;;14.33;;
24637;SDS011;12773;50.162;8.548;2024-02-28T03:38:27;38.00;;;14.38;;
24637;SDS011;12773;50.162;8.548;2024-02-28T03:41:14;38.92;;;14.75;;
24637;SDS011;12773;50.162;8.548;2024-02-28T03:44:02;35.30;;;14.63;;
24637;SDS011;12773;50.162;8.548;2024-02-28T03:46:50;37.65;;;14.75;;
24637;SDS011;12773;50.162;8.548;2024-02-28T03:49:37;34.55;;;13.30;;
24637;SDS011;12773;50.162;8.548;2024-02-28T03:52:25;40.00;;;16.17;;
24637;SDS011;12773;50.162;8.548;2024-02-28T03:55:12;38.05;;;14.40;;
24637;SDS011;12773;50.162;8.548;2024-02-28T03:58:01;40.17;;;15.03;;
24637;SDS011;12773;50.162;8.548;2024-02-28T04:00:49;40.05;;;14.18;;
24637;SDS011;12773;50.162;8.548;2024-02-28T04:03:36;41.05;;;15.23;;
24637;SDS011;12773;50.162;8.548;2024-02-28T04:06:24;39.25;;;14.25;;
24637;SDS011;12773;50.162;8.548;2024-02-28T04:09:11;43.35;;;14.63;;
24637;SDS011;12773;50.162;8.548;2024-02-28T04:11:59;42.17;;;14.73;;
24637;SDS011;12773;50.162;8.548;2024-02-28T04:14:46;40.67;;;14.87;;
24637;SDS011;12773;50.162;8.548;2024-02-28T04:17:34;46.42;;;16.17;;
24637;SDS011;12773;50.162;8.548;2024-02-28T04:20:21;36.77;;;14.20;;
24637;SDS011;12773;50.162;8.548;2024-02-28T04:23:09;40.88;;;15.23;;
24637;SDS011;12773;50.162;8.548;2024-02-28T04:25:56;40.45;;;15.63;;
24637;SDS011;12773;50.162;8.548;2024-02-28T04:28:44;45.70;;;15.78;;
24637;SDS011;12773;50.162;8.548;2024-02-28T04:31:31;47.73;;;16.55;;
24637;SDS011;12773;50.162;8.548;2024-02-28T04:34:19;43.20;;;15.18;;
24637;SDS011;12773;50.162;8.548;2024-02-28T04:37:07;42.95;;;15.18;;
24637;SDS011;12773;50.162;8.548;2024-02-28T04:39:54;43.80;;;15.40;;
24637;SDS011;12773;50.162;8.548;2024-02-28T04:42:42;42.25;;;14.30;;
24637;SDS011;12773;50.162;8.548;2024-02-28T04:45:30;48.28;;;15.85;;
24637;SDS011;12773;50.162;8.548;2024-02-28T04:48:17;41.40;;;15.28;;
24637;SDS011;12773;50.162;8.548;2024-02-28T04:51:04;49.15;;;15.15;;
24637;SDS011;12773;50.162;8.548;2024-02-28T04:53:52;45.38;;;15.68;;
24637;SDS011;12773;50.162;8.548;2024-02-28T04:56:40;47.38;;;15.28;;
24637;SDS011;12773;50.162;8.548;2024-02-28T04:59:28;42.38;;;15.50;;
24637;SDS011;12773;50.162;8.548;2024-02-28T05:02:16;43.28;;;14.80;;
24637;SDS011;12773;50.162;8.548;2024-02-28T05:05:04;41.23;;;15.72;;
24637;SDS011;12773;50.162;8.548;2024-02-28T05:07:51;42.15;;;14.80;;
24637;SDS011;12773;50.162;8.548;2024-02-28T05:10:39;43.83;;;14.23;;
24637;SDS011;12773;50.162;8.548;2024-02-28T05:13:27;46.53;;;14.50;;
24637;SDS011;12773;50.162;8.548;2024-02-28T05:16:16;49.05;;;15.93;;
24637;SDS011;12773;50.162;8.548;2024-02-28T05:19:03;45.58;;;16.25;;
24637;SDS011;12773;50.162;8.548;2024-02-28T05:21:51;53.90;;;16.95;;
24637;SDS011;12773;50.162;8.548;2024-02-28T05:24:38;49.90;;;16.50;;
24637;SDS011;12773;50.162;8.548;2024-02-28T05:27:28;51.73;;;16.77;;
24637;SDS011;12773;50.162;8.548;2024-02-28T05:30:15;49.23;;;16.25;;
24637;SDS011;12773;50.162;8.548;2024-02-28T05:33:02;48.02;;;15.95;;
24637;SDS011;12773;50.162;8.548;2024-02-28T05:35:50;50.92;;;16.52;;
24637;SDS011;12773;50.162;8.548;2024-02-28T05:38:37;46.88;;;16.50;;
24637;SDS011;12773;50.162;8.548;2024-02-28T05:41:25;51.70;;;16.77;;
24637;SDS011;12773;50.162;8.548;2024-02-28T05:44:13;44.90;;;16.35;;
24637;SDS011;12773;50.162;8.548;2024-02-28T05:47:00;50.65;;;16.10;;
24637;SDS011;12773;50.162;8.548;2024-02-28T05:49:48;53.58;;;18.20;;
24637;SDS011;12773;50.162;8.548;2024-02-28T05:52:35;57.38;;;17.48;;
24637;SDS011;12773;50.162;8.548;2024-02-28T05:55:23;53.75;;;17.10;;
24637;SDS011;12773;50.162;8.548;2024-02-28T05:58:13;46.77;;;17.70;;
24637;SDS011;12773;50.162;8.548;2024-02-28T06:01:01;58.08;;;17.35;;
24637;SDS011;12773;50.162;8.548;2024-02-28T06:03:49;52.10;;;18.37;;
24637;SDS011;12773;50.162;8.548;2024-02-28T06:06:37;56.88;;;19.07;;
24637;SDS011;12773;50.162;8.548;2024-02-28T06:09:24;57.03;;;17.75;;
24637;SDS011;12773;50.162;8.548;2024-02-28T06:12:14;52.20;;;18.15;;
24637;SDS011;12773;50.162;8.548;2024-02-28T06:15:01;59.60;;;20.17;;
24637;SDS011;12773;50.162;8.548;2024-02-28T06:17:49;56.83;;;17.98;;
24637;SDS011;12773;50.162;8.548;2024-02-28T06:20:37;58.58;;;18.60;;
24637;SDS011;12773;50.162;8.548;2024-02-28T06:23:24;54.80;;;17.50;;
24637;SDS011;12773;50.162;8.548;2024-02-28T06:26:13;56.75;;;17.42;;
24637;SDS011;12773;50.162;8.548;2024-02-28T06:29:03;62.83;;;18.67;;
24637;SDS011;12773;50.162;8.548;2024-02-28T06:31:51;52.30;;;17.45;;
24637;SDS011;12773;50.162;8.548;2024-02-28T06:34:40;56.05;;;18.80;;
24637;SDS011;12773;50.162;8.548;2024-02-28T06:37:28;51.70;;;17.07;;
24637;SDS011;12773;50.162;8.548;2024-02-28T06:40:16;51.18;;;17.70;;
24637;SDS011;12773;50.162;8.548;2024-02-28T06:43:04;57.53;;;17.50;;
24637;SDS011;12773;50.162;8.548;2024-02-28T06:45:51;54.03;;;17.25;;
24637;SDS011;12773;50.162;8.548;2024-02-28T06:48:39;51.90;;;17.92;;
24637;SDS011;12773;50.162;8.548;2024-02-28T06:51:27;55.52;;;18.20;;
24637;SDS011;12773;50.162;8.548;2024-02-28T06:54:15;48.75;;;16.60;;
24637;SDS011;12773;50.162;8.548;2024-02-28T06:57:02;50.73;;;16.82;;
24637;SDS011;12773;50.162;8.548;2024-02-28T06:59:49;54.60;;;18.75;;
24637;SDS011;12773;50.162;8.548;2024-02-28T07:02:37;61.88;;;19.92;;
24637;SDS011;12773;50.162;8.548;2024-02-28T07:05:24;58.75;;;19.37;;
24637;SDS011;12773;50.162;8.548;2024-02-28T07:08:11;55.12;;;19.07;;
24637;SDS011;12773;50.162;8.548;2024-02-28T07:10:59;59.03;;;18.20;;
24637;SDS011;12773;50.162;8.548;2024-02-28T07:13:47;59.38;;;17.82;;
24637;SDS011;12773;50.162;8.548;2024-02-28T07:16:35;50.67;;;18.25;;
24637;SDS011;12773;50.162;8.548;2024-02-28T07:19:22;52.60;;;17.85;;
24637;SDS011;12773;50.162;8.548;2024-02-28T07:22:10;50.95;;;16.70;;
24637;SDS011;12773;50.162;8.548;2024-02-28T07:24:57;53.48;;;18.37;;
24637;SDS011;12773;50.162;8.548;2024-02-28T07:27:46;52.00;;;19.05;;
24637;SDS011;12773;50.162;8.548;2024-02-28T07:30:33;53.23;;;18.62;;
24637;SDS011;12773;50.162;8.548;2024-02-28T07:33:21;60.08;;;18.67;;
24637;SDS011;12773;50.162;8.548;2024-02-28T07:36:09;61.30;;;20.15;;
24637;SDS011;12773;50.162;8.548;2024-02-28T07:38:56;57.33;;;20.32;;
24637;SDS011;12773;50.162;8.548;2024-02-28T07:41:44;65.92;;;21.95;;
24637;SDS011;12773;50.162;8.548;2024-02-28T07:44:31;69.55;;;22.40;;
24637;SDS011;12773;50.162;8.548;2024-02-28T07:47:19;71.20;;;22.17;;
24637;SDS011;12773;50.162;8.548;2024-02-28T07:50:08;67.90;;;22.70;;
24637;SDS011;12773;50.162;8.548;2024-02-28T07:52:56;62.35;;;20.00;;
24637;SDS011;12773;50.162;8.548;2024-02-28T07:55:43;57.17;;;19.57;;
24637;SDS011;12773;50.162;8.548;2024-02-28T07:58:31;53.13;;;18.70;;
24637;SDS011;12773;50.162;8.548;2024-02-28T08:01:18;68.12;;;22.73;;
24637;SDS011;12773;50.162;8.548;2024-02-28T08:04:08;73.20;;;23.45;;
24637;SDS011;12773;50.162;8.548;2024-02-28T08:06:55;77.30;;;24.90;;
24637;SDS011;12773;50.162;8.548;2024-02-28T08:09:42;78.17;;;24.12;;
24637;SDS011;12773;50.162;8.548;2024-02-28T08:12:30;65.97;;;23.67;;
24637;SDS011;12773;50.162;8.548;2024-02-28T08:15:18;77.22;;;25.95;;
24637;SDS011;12773;50.162;8.548;2024-02-28T08:18:05;71.72;;;24.98;;
24637;SDS011;12773;50.162;8.548;2024-02-28T08:20:53;72.12;;;25.57;;
24637;SDS011;12773;50.162;8.548;2024-02-28T08:23:42;66.45;;;23.85;;
24637;SDS011;12773;50.162;8.548;2024-02-28T08:26:35;67.22;;;24.15;;
24637;SDS011;12773;50.162;8.548;2024-02-28T08:29:19;67.55;;;25.00;;
24637;SDS011;12773;50.162;8.548;2024-02-28T08:32:06;68.85;;;24.25;;
24637;SDS011;12773;50.162;8.548;2024-02-28T08:34:53;81.80;;;26.12;;
24637;SDS011;12773;50.162;8.548;2024-02-28T08:37:42;63.75;;;24.10;;
24637;SDS011;12773;50.162;8.548;2024-02-28T08:40:30;61.25;;;23.80;;
24637;SDS011;12773;50.162;8.548;2024-02-28T08:43:17;62.30;;;24.00;;
24637;SDS011;12773;50.162;8.548;2024-02-28T08:46:05;62.50;;;25.00;;
24637;SDS011;12773;50.162;8.548;2024-02-28T08:48:53;64.60;;;24.18;;
24637;SDS011;12773;50.162;8.548;2024-02-28T08:51:41;58.20;;;22.22;;
24637;SDS011;12773;50.162;8.548;2024-02-28T08:54:30;52.93;;;21.57;;
24637;SDS011;12773;50.162;8.548;2024-02-28T08:57:17;65.10;;;21.65;;
24637;SDS011;12773;50.162;8.548;2024-02-28T09:00:07;64.45;;;21.57;;
24637;SDS011;12773;50.162;8.548;2024-02-28T09:02:56;64.32;;;23.05;;
24637;SDS011;12773;50.162;8.548;2024-02-28T09:05:43;60.63;;;22.55;;
24637;SDS011;12773;50.162;8.548;2024-02-28T09:08:31;55.58;;;20.68;;
24637;SDS011;12773;50.162;8.548;2024-02-28T09:11:18;55.95;;;21.55;;
24637;SDS011;12773;50.162;8.548;2024-02-28T09:14:06;56.05;;;21.25;;
24637;SDS011;12773;50.162;8.548;2024-02-28T09:16:53;59.33;;;22.65;;
24637;SDS011;12773;50.162;8.548;2024-02-28T09:19:42;57.20;;;20.68;;
24637;SDS011;12773;50.162;8.548;2024-02-28T09:22:30;50.17;;;21.02;;
24637;SDS011;12773;50.162;8.548;2024-02-28T09:25:17;50.52;;;20.32;;
24637;SDS011;12773;50.162;8.548;2024-02-28T09:28:08;49.13;;;21.40;;
24637;SDS011;12773;50.162;8.548;2024-02-28T09:30:57;48.40;;;20.23;;
24637;SDS011;12773;50.162;8.548;2024-02-28T09:33:44;48.10;;;20.08;;
24637;SDS011;12773;50.162;8.548;2024-02-28T09:36:32;47.45;;;20.80;;
24637;SDS011;12773;50.162;8.548;2024-02-28T09:39:21;40.38;;;18.80;;
24637;SDS011;12773;50.162;8.548;2024-02-28T09:42:14;39.05;;;18.17;;
24637;SDS011;12773;50.162;8.548;2024-02-28T09:45:00;38.48;;;17.15;;
24637;SDS011;12773;50.162;8.548;2024-02-28T09:47:49;41.00;;;19.25;;
24637;SDS011;12773;50.162;8.548;2024-02-28T09:50:37;41.05;;;19.62;;
24637;SDS011;12773;50.162;8.548;2024-02-28T09:53:26;39.23;;;18.57;;
24637;SDS011;12773;50.162;8.548;2024-02-28T09:56:14;43.30;;;18.95;;
24637;SDS011;12773;50.162;8.548;2024-02-28T09:59:03;39.00;;;18.25;;
24637;SDS011;12773;50.162;8.548;2024-02-28T10:02:02;45.73;;;20.80;;
24637;SDS011;12773;50.162;8.548;2024-02-28T10:04:45;43.13;;;20.05;;
24637;SDS011;12773;50.162;8.548;2024-02-28T10:07:35;50.08;;;20.50;;
24637;SDS011;12773;50.162;8.548;2024-02-28T10:10:22;47.58;;;20.60;;
24637;SDS011;12773;50.162;8.548;2024-02-28T10:13:10;44.88;;;21.65;;
24637;SDS011;12773;50.162;8.548;2024-02-28T10:15:57;45.17;;;20.32;;
24637;SDS011;12773;50.162;8.548;2024-02-28T10:18:45;46.73;;;20.57;;
24637;SDS011;12773;50.162;8.548;2024-02-28T10:21:34;46.48;;;20.10;;
24637;SDS011;12773;50.162;8.548;2024-02-28T10:24:27;41.15;;;19.07;;
24637;SDS011;12773;50.162;8.548;2024-02-28T10:27:15;39.08;;;19.12;;
24637;SDS011;12773;50.162;8.548;2024-02-28T10:30:03;40.12;;;19.57;;
24637;SDS011;12773;50.162;8.548;2024-02-28T10:32:50;37.50;;;18.65;;
24637;SDS011;12773;50.162;8.548;2024-02-28T10:35:38;38.00;;;17.80;;
24637;SDS011;12773;50.162;8.548;2024-02-28T10:38:28;37.10;;;18.23;;
24637;SDS011;12773;50.162;8.548;2024-02-28T10:41:18;36.15;;;18.32;;
24637;SDS011;12773;50.162;8.548;2024-02-28T10:44:06;37.70;;;18.55;;
24637;SDS011;12773;50.162;8.548;2024-02-28T10:46:56;36.88;;;17.35;;
24637;SDS011;12773;50.162;8.548;2024-02-28T10:49:45;34.27;;;18.07;;
24637;SDS011;12773;50.162;8.548;2024-02-28T10:52:33;37.73;;;18.25;;
24637;SDS011;12773;50.162;8.548;2024-02-28T10:55:23;37.75;;;17.87;;
24637;SDS011;12773;50.162;8.548;2024-02-28T10:58:12;37.40;;;18.50;;
24637;SDS011;12773;50.162;8.548;2024-02-28T11:01:02;37.45;;;18.80;;
24637;SDS011;12773;50.162;8.548;2024-02-28T11:03:50;41.28;;;17.80;;
24637;SDS011;12773;50.162;8.548;2024-02-28T11:06:51;37.88;;;18.55;;
24637;SDS011;12773;50.162;8.548;2024-02-28T11:09:41;39.42;;;18.48;;
24637;SDS011;12773;50.162;8.548;2024-02-28T11:12:29;37.17;;;18.20;;
24637;SDS011;12773;50.162;8.548;2024-02-28T11:15:16;41.65;;;20.40;;
24637;SDS011;12773;50.162;8.548;2024-02-28T11:18:07;38.28;;;19.17;;
24637;SDS011;12773;50.162;8.548;2024-02-28T11:20:56;34.85;;;17.10;;
24637;SDS011;12773;50.162;8.548;2024-02-28T11:23:46;36.35;;;18.07;;
24637;SDS011;12773;50.162;8.548;2024-02-28T11:26:34;41.75;;;18.90;;
24637;SDS011;12773;50.162;8.548;2024-02-28T11:29:27;38.10;;;19.02;;
24637;SDS011;12773;50.162;8.548;2024-02-28T11:32:15;38.80;;;18.70;;
24637;SDS011;12773;50.162;8.548;2024-02-28T11:35:03;36.25;;;18.60;;
24637;SDS011;12773;50.162;8.548;2024-02-28T11:37:50;35.85;;;18.55;;
24637;SDS011;12773;50.162;8.548;2024-02-28T11:40:48;36.83;;;18.07;;
24637;SDS011;12773;50.162;8.548;2024-02-28T11:43:36;38.55;;;17.87;;
24637;SDS011;12773;50.162;8.548;2024-02-28T11:46:25;37.93;;;18.05;;
24637;SDS011;12773;50.162;8.548;2024-02-28T11:49:13;34.50;;;17.05;;
24637;SDS011;12773;50.162;8.548;2024-02-28T11:52:01;36.25;;;18.20;;
24637;SDS011;12773;50.162;8.548;2024-02-28T11:54:49;38.80;;;18.30;;
24637;SDS011;12773;50.162;8.548;2024-02-28T11:57:37;34.18;;;17.25;;
24637;SDS011;12773;50.162;8.548;2024-02-28T12:00:26;37.50;;;19.10;;
24637;SDS011;12773;50.162;8.548;2024-02-28T12:03:13;36.50;;;17.55;;
24637;SDS011;12773;50.162;8.548;2024-02-28T12:06:00;37.33;;;18.62;;
24637;SDS011;12773;50.162;8.548;2024-02-28T12:08:48;37.05;;;18.50;;
24637;SDS011;12773;50.162;8.548;2024-02-28T12:11:37;32.90;;;17.37;;
24637;SDS011;12773;50.162;8.548;2024-02-28T12:14:24;35.65;;;17.17;;
24637;SDS011;12773;50.162;8.548;2024-02-28T12:17:13;38.85;;;17.90;;
24637;SDS011;12773;50.162;8.548;2024-02-28T12:20:01;34.18;;;18.35;;
24637;SDS011;12773;50.162;8.548;2024-02-28T12:22:48;35.43;;;17.62;;
24637;SDS011;12773;50.162;8.548;2024-02-28T12:25:35;36.90;;;18.10;;
24637;SDS011;12773;50.162;8.548;2024-02-28T12:28:24;34.48;;;17.32;;
24637;SDS011;12773;50.162;8.548;2024-02-28T12:31:11;35.65;;;18.87;;
24637;SDS011;12773;50.162;8.548;2024-02-28T12:33:59;33.88;;;18.00;;
24637;SDS011;12773;50.162;8.548;2024-02-28T12:36:47;36.40;;;17.95;;
24637;SDS011;12773;50.162;8.548;2024-02-28T12:39:34;38.10;;;18.07;;
24637;SDS011;12773;50.162;8.548;2024-02-28T12:42:22;41.55;;;18.42;;
24637;SDS011;12773;50.162;8.548;2024-02-28T12:45:09;42.70;;;20.08;;
24637;SDS011;12773;50.162;8.548;2024-02-28T12:47:57;39.48;;;18.90;;
24637;SDS011;12773;50.162;8.548;2024-02-28T12:50:46;36.75;;;17.75;;
24637;SDS011;12773;50.162;8.548;2024-02-28T12:53:34;39.58;;;19.02;;
24637;SDS011;12773;50.162;8.548;2024-02-28T12:56:22;39.80;;;18.45;;
24637;SDS011;12773;50.162;8.548;2024-02-28T12:59:09;39.35;;;18.60;;
24637;SDS011;12773;50.162;8.548;2024-02-28T13:01:57;35.63;;;17.62;;
24637;SDS011;12773;50.162;8.548;2024-02-28T13:04:45;38.15;;;18.00;;
24637;SDS011;12773;50.162;8.548;2024-02-28T13:07:33;34.63;;;17.52;;
24637;SDS011;12773;50.162;8.548;2024-02-28T13:10:22;37.53;;;16.93;;
24637;SDS011;12773;50.162;8.548;2024-02-28T13:13:09;30.60;;;16.55;;
24637;SDS011;12773;50.162;8.548;2024-02-28T13:15:58;29.30;;;15.68;;
24637;SDS011;12773;50.162;8.548;2024-02-28T13:18:46;36.73;;;16.52;;
24637;SDS011;12773;50.162;8.548;2024-02-28T13:21:33;36.38;;;17.10;;
24637;SDS011;12773;50.162;8.548;2024-02-28T13:24:21;34.80;;;16.48;;
24637;SDS011;12773;50.162;8.548;2024-02-28T13:27:09;34.83;;;16.73;;
24637;SDS011;12773;50.162;8.548;2024-02-28T13:29:56;33.73;;;16.07;;
24637;SDS011;12773;50.162;8.548;2024-02-28T13:32:43;33.13;;;15.98;;
24637;SDS011;12773;50.162;8.548;2024-02-28T13:35:33;30.08;;;15.55;;
24637;SDS011;12773;50.162;8.548;2024-02-28T13:38:23;33.78;;;15.85;;
24637;SDS011;12773;50.162;8.548;2024-02-28T13:41:10;33.48;;;15.38;;
24637;SDS011;12773;50.162;8.548;2024-02-28T13:43:58;30.92;;;15.58;;
24637;SDS011;12773;50.162;8.548;2024-02-28T13:46:46;29.37;;;15.48;;
24637;SDS011;12773;50.162;8.548;2024-02-28T13:49:34;30.90;;;14.75;;
24637;SDS011;12773;50.162;8.548;2024-02-28T13:52:22;35.03;;;15.75;;
24637;SDS011;12773;50.162;8.548;2024-02-28T13:55:09;34.58;;;15.48;;
24637;SDS011;12773;50.162;8.548;2024-02-28T13:57:57;30.48;;;15.43;;
24637;SDS011;12773;50.162;8.548;2024-02-28T14:00:45;31.37;;;16.07;;
24637;SDS011;12773;50.162;8.548;2024-02-28T14:03:33;27.87;;;14.63;;
24637;SDS011;12773;50.162;8.548;2024-02-28T14:06:21;28.60;;;14.75;;
24637;SDS011;12773;50.162;8.548;2024-02-28T14:09:08;27.95;;;14.65;;
24637;SDS011;12773;50.162;8.548;2024-02-28T14:11:56;29.27;;;14.40;;
24637;SDS011;12773;50.162;8.548;2024-02-28T14:14:43;28.57;;;14.05;;
24637;SDS011;12773;50.162;8.548;2024-02-28T14:17:31;25.72;;;12.80;;
24637;SDS011;12773;50.162;8.548;2024-02-28T14:20:19;28.20;;;13.18;;
24637;SDS011;12773;50.162;8.548;2024-02-28T14:23:06;22.70;;;11.95;;
24637;SDS011;12773;50.162;8.548;2024-02-28T14:25:54;28.20;;;13.70;;
24637;SDS011;12773;50.162;8.548;2024-02-28T14:28:42;26.27;;;12.90;;
24637;SDS011;12773;50.162;8.548;2024-02-28T14:31:30;29.15;;;12.98;;
24637;SDS011;12773;50.162;8.548;2024-02-28T14:34:17;25.05;;;12.73;;
24637;SDS011;12773;50.162;8.548;2024-02-28T14:37:04;25.92;;;12.23;;
24637;SDS011;12773;50.162;8.548;2024-02-28T14:39:52;25.65;;;12.75;;
24637;SDS011;12773;50.162;8.548;2024-02-28T14:42:40;26.33;;;12.03;;
24637;SDS011;12773;50.162;8.548;2024-02-28T14:45:28;26.05;;;11.20;;
24637;SDS011;12773;50.162;8.548;2024-02-28T14:48:17;22.15;;;10.88;;
24637;SDS011;12773;50.162;8.548;2024-02-28T14:51:04;21.87;;;11.38;;
24637;SDS011;12773;50.162;8.548;2024-02-28T14:53:52;21.48;;;11.20;;
24637;SDS011;12773;50.162;8.548;2024-02-28T14:56:40;23.30;;;11.60;;
24637;SDS011;12773;50.162;8.548;2024-02-28T14:59:28;22.13;;;11.00;;
24637;SDS011;12773;50.162;8.548;2024-02-28T15:02:15;21.45;;;10.80;;
24637;SDS011;12773;50.162;8.548;2024-02-28T15:05:03;21.68;;;11.55;;
24637;SDS011;12773;50.162;8.548;2024-02-28T15:07:51;21.33;;;10.93;;
24637;SDS011;12773;50.162;8.548;2024-02-28T15:10:40;19.40;;;9.93;;
24637;SDS011;12773;50.162;8.548;2024-02-28T15:13:27;25.62;;;10.93;;
24637;SDS011;12773;50.162;8.548;2024-02-28T15:16:15;21.62;;;10.70;;
24637;SDS011;12773;50.162;8.548;2024-02-28T15:19:03;23.20;;;10.68;;
24637;SDS011;12773;50.162;8.548;2024-02-28T15:21:50;17.48;;;9.43;;
24637;SDS011;12773;50.162;8.548;2024-02-28T15:24:38;21.20;;;9.38;;
24637;SDS011;12773;50.162;8.548;2024-02-28T15:27:26;19.70;;;9.65;;
24637;SDS011;12773;50.162;8.548;2024-02-28T15:30:15;20.15;;;9.20;;
24637;SDS011;12773;50.162;8.548;2024-02-28T15:33:02;20.80;;;9.78;;
24637;SDS011;12773;50.162;8.548;2024-02-28T15:35:50;20.75;;;10.00;;
24637;SDS011;12773;50.162;8.548;2024-02-28T15:38:38;23.87;;;11.70;;
24637;SDS011;12773;50.162;8.548;2024-02-28T15:41:25;20.90;;;11.25;;
24637;SDS011;12773;50.162;8.548;2024-02-28T15:44:13;22.62;;;10.98;;
24637;SDS011;12773;50.162;8.548;2024-02-28T15:47:01;23.65;;;11.35;;
24637;SDS011;12773;50.162;8.548;2024-02-28T15:49:48;22.62;;;11.53;;
24637;SDS011;12773;50.162;8.548;2024-02-28T15:52:36;24.92;;;12.03;;
24637;SDS011;12773;50.162;8.548;2024-02-28T15:55:23;20.60;;;10.55;;
24637;SDS011;12773;50.162;8.548;2024-02-28T15:58:11;21.75;;;10.68;;
24637;SDS011;12773;50.162;8.548;2024-02-28T16:00:58;21.02;;;10.48;;
24637;SDS011;12773;50.162;8.548;2024-02-28T16:03:46;22.98;;;10.58;;
24637;SDS011;12773;50.162;8.548;2024-02-28T16:06:34;22.93;;;10.58;;
24637;SDS011;12773;50.162;8.548;2024-02-28T16:09:23;21.82;;;10.50;;
24637;SDS011;12773;50.162;8.548;2024-02-28T16:12:10;21.45;;;10.40;;
24637;SDS011;12773;50.162;8.548;2024-02-28T16:14:58;19.65;;;9.43;;
24637;SDS011;12773;50.162;8.548;2024-02-28T16:17:45;22.40;;;9.38;;
24637;SDS011;12773;50.162;8.548;2024-02-28T16:20:33;16.82;;;8.85;;